Time;durP1;ratioP1;P1;durP2;ratioP2;P2;SDS_P1;SDS_P2;PMS_P1;PMS_P2;Temp;Humidity;BMP_temperature;BMP_pressure;BME280_temperature;BME280_humidity;BME280_pressure;Samples;Min_cycle;Max_cycle;Signal;HPM_P1;HPM_P2
2023/06/30 00:00:56;;;;;;;1.83;0.77;;;13.10;99.90;;;;;;5016713;28;20198;-82
2023/06/30 00:03:27;;;;;;;2.95;0.70;;;13.20;99.90;;;;;;5016630;28;20218;-82
2023/06/30 00:05:58;;;;;;;1.10;0.60;;;13.30;99.90;;;;;;5016894;28;20292;-82
2023/06/30 00:08:29;;;;;;;1.00;0.60;;;13.40;99.90;;;;;;5016452;28;20658;-81
2023/06/30 00:11:00;;;;;;;0.98;0.50;;;13.50;99.90;;;;;;5016569;28;20242;-84
2023/06/30 00:13:31;;;;;;;1.95;0.98;;;13.60;99.90;;;;;;5014590;28;20222;-80
2023/06/30 00:16:04;;;;;;;1.08;0.60;;;13.60;99.90;;;;;;5014205;28;20199;-74
2023/06/30 00:18:36;;;;;;;0.40;0.40;;;13.70;99.90;;;;;;4996740;28;20192;-81
2023/06/30 00:21:07;;;;;;;0.77;0.50;;;13.80;99.90;;;;;;5003829;28;20257;-74
2023/06/30 00:23:38;;;;;;;1.85;0.45;;;13.90;99.90;;;;;;5016571;28;20669;-79
2023/06/30 00:26:09;;;;;;;2.67;1.17;;;14.00;99.90;;;;;;5016331;28;20191;-78
2023/06/30 00:28:40;;;;;;;1.02;0.57;;;14.00;99.90;;;;;;5016540;28;20187;-82
2023/06/30 00:31:13;;;;;;;1.05;0.40;;;14.10;99.90;;;;;;5016229;28;20194;-83
2023/06/30 00:33:45;;;;;;;1.85;0.60;;;14.10;99.90;;;;;;5015965;28;20210;-76
2023/06/30 00:36:16;;;;;;;1.98;0.40;;;14.20;99.90;;;;;;5016087;28;20187;-80
2023/06/30 00:38:47;;;;;;;1.15;0.40;;;14.30;99.90;;;;;;5015416;28;20278;-79
2023/06/30 00:41:18;;;;;;;0.38;0.38;;;14.40;99.90;;;;;;5016147;28;20203;-82
2023/06/30 00:43:49;;;;;;;0.50;0.30;;;14.50;99.90;;;;;;5016439;28;20219;-80
2023/06/30 00:46:23;;;;;;;0.32;0.32;;;14.60;99.90;;;;;;5016068;28;20639;-80
2023/06/30 00:48:54;;;;;;;0.47;0.40;;;14.60;99.90;;;;;;5015825;28;20643;-80
2023/06/30 00:51:25;;;;;;;1.08;0.30;;;14.70;99.90;;;;;;5016008;28;20191;-81
2023/06/30 00:53:56;;;;;;;0.40;0.35;;;14.90;99.90;;;;;;5016010;28;20194;-79
2023/06/30 00:56:28;;;;;;;0.52;0.40;;;14.90;99.90;;;;;;5015854;28;20553;-81
2023/06/30 00:58:59;;;;;;;0.20;0.20;;;15.10;99.90;;;;;;5015625;28;20206;-85
2023/06/30 01:01:36;;;;;;;0.30;0.30;;;15.20;99.90;;;;;;5015539;28;20194;-83
2023/06/30 01:04:19;;;;;;;0.30;0.30;;;15.20;99.90;;;;;;5016398;28;20210;-83
2023/06/30 01:07:01;;;;;;;1.50;0.30;;;15.30;99.90;;;;;;5015730;28;20195;-82
2023/06/30 01:09:35;;;;;;;2.05;0.57;;;15.40;99.90;;;;;;5010696;28;20562;-84
2023/06/30 01:12:07;;;;;;;0.10;0.10;;;15.60;99.90;;;;;;4996010;28;20227;-85
2023/06/30 01:14:40;;;;;;;0.10;0.10;;;15.60;99.90;;;;;;4999652;28;20213;-86
2023/06/30 01:17:14;;;;;;;0.20;0.20;;;15.70;99.90;;;;;;5013938;28;20211;-81
2023/06/30 01:19:47;;;;;;;0.22;0.22;;;15.70;99.90;;;;;;5014149;28;20725;-78
2023/06/30 01:22:26;;;;;;;0.80;0.30;;;15.80;99.90;;;;;;5015300;28;20209;-83
2023/06/30 01:25:02;;;;;;;0.30;0.30;;;15.90;99.90;;;;;;5014374;28;20202;-83
2023/06/30 01:27:36;;;;;;;0.88;0.35;;;16.00;99.90;;;;;;5014382;28;20198;-82
2023/06/30 01:30:08;;;;;;;0.90;0.30;;;16.00;99.90;;;;;;5015080;28;20188;-78
2023/06/30 01:32:43;;;;;;;0.38;0.25;;;16.10;99.90;;;;;;5015351;28;20547;-75
2023/06/30 01:35:14;;;;;;;1.92;0.50;;;16.20;99.90;;;;;;5015457;28;20230;-81
2023/06/30 01:37:46;;;;;;;0.77;0.30;;;16.30;99.90;;;;;;5014835;28;20253;-80
2023/06/30 01:40:17;;;;;;;0.68;0.30;;;16.30;99.90;;;;;;5015143;28;20195;-76
2023/06/30 01:42:49;;;;;;;0.38;0.20;;;16.40;99.90;;;;;;5015266;28;20250;-75
2023/06/30 01:45:20;;;;;;;0.20;0.20;;;16.40;99.90;;;;;;5000369;28;20242;-74
2023/06/30 01:47:54;;;;;;;0.45;0.30;;;16.40;99.90;;;;;;4995254;28;20199;-77
2023/06/30 01:50:28;;;;;;;0.65;0.35;;;16.40;99.90;;;;;;5012938;28;20207;-74
2023/06/30 01:52:59;;;;;;;0.60;0.45;;;16.50;99.90;;;;;;5014649;28;20198;-74
2023/06/30 01:55:30;;;;;;;0.68;0.35;;;16.70;99.90;;;;;;5014750;28;20187;-75
2023/06/30 01:58:02;;;;;;;0.38;0.38;;;16.70;99.90;;;;;;5014533;28;20717;-76
2023/06/30 02:00:33;;;;;;;0.38;0.38;;;16.70;99.90;;;;;;5014488;28;20750;-75
2023/06/30 02:03:06;;;;;;;0.28;0.28;;;16.80;99.90;;;;;;5014497;28;20621;-75
2023/06/30 02:05:37;;;;;;;0.75;0.20;;;16.80;99.90;;;;;;5014367;28;20199;-75
2023/06/30 02:08:08;;;;;;;1.05;0.30;;;16.80;99.90;;;;;;5014438;28;20195;-76
2023/06/30 02:10:39;;;;;;;1.85;0.28;;;16.80;99.90;;;;;;5014446;28;20199;-75
2023/06/30 02:13:10;;;;;;;0.35;0.20;;;16.80;99.90;;;;;;5014325;28;20233;-74
2023/06/30 02:15:41;;;;;;;0.20;0.20;;;17.00;99.90;;;;;;5014194;28;20187;-74
2023/06/30 02:18:15;;;;;;;0.40;0.30;;;17.10;99.90;;;;;;5014442;28;20406;-74
2023/06/30 02:20:46;;;;;;;2.33;0.30;;;17.10;99.90;;;;;;5008616;28;20244;-73
2023/06/30 02:23:17;;;;;;;1.17;0.35;;;17.20;99.90;;;;;;5004160;28;20663;-74
2023/06/30 02:25:49;;;;;;;0.28;0.20;;;17.40;99.90;;;;;;5014248;28;20198;-74
2023/06/30 02:28:20;;;;;;;0.28;0.20;;;17.30;99.90;;;;;;5014008;28;20191;-74
2023/06/30 02:30:51;;;;;;;0.20;0.20;;;17.20;99.90;;;;;;5012319;28;20203;-74
2023/06/30 02:33:24;;;;;;;0.30;0.20;;;17.30;99.90;;;;;;5011792;28;20203;-78
2023/06/30 02:35:55;;;;;;;0.10;0.10;;;17.20;99.90;;;;;;5013552;28;20249;-82
2023/06/30 02:38:27;;;;;;;0.20;0.20;;;17.30;99.90;;;;;;5014227;28;20564;-82
2023/06/30 02:40:58;;;;;;;0.52;0.20;;;17.30;99.90;;;;;;5013646;28;20282;-79
2023/06/30 02:43:29;;;;;;;0.20;0.20;;;17.50;99.90;;;;;;5014123;28;20187;-81
2023/06/30 02:46:00;;;;;;;0.75;0.20;;;17.50;99.90;;;;;;5013856;28;20191;-82
2023/06/30 02:48:33;;;;;;;0.45;0.20;;;17.50;99.90;;;;;;5013993;28;20241;-85
2023/06/30 02:51:04;;;;;;;0.38;0.15;;;17.50;99.90;;;;;;5014128;28;20198;-80
2023/06/30 02:53:36;;;;;;;0.43;0.30;;;17.60;99.90;;;;;;4998794;28;20228;-84
2023/06/30 02:56:07;;;;;;;0.57;0.30;;;17.60;99.90;;;;;;4994387;28;20295;-80
2023/06/30 02:58:39;;;;;;;0.57;0.20;;;17.60;99.90;;;;;;4993838;28;20219;-81
2023/06/30 03:01:10;;;;;;;0.35;0.30;;;17.60;99.90;;;;;;4993700;28;20654;-82
2023/06/30 03:03:44;;;;;;;1.90;0.50;;;17.80;99.90;;;;;;4993960;28;20191;-82
2023/06/30 03:06:15;;;;;;;0.30;0.30;;;17.90;99.90;;;;;;4993983;28;20632;-82
2023/06/30 03:08:46;;;;;;;0.65;0.20;;;18.00;99.90;;;;;;5010188;28;20647;-82
2023/06/30 03:11:17;;;;;;;0.68;0.30;;;18.10;99.90;;;;;;5013430;28;20195;-80
2023/06/30 03:13:49;;;;;;;1.08;0.25;;;18.20;99.90;;;;;;5013292;28;20198;-82
2023/06/30 03:16:20;;;;;;;0.35;0.20;;;18.10;99.90;;;;;;5013591;28;20213;-82
2023/06/30 03:18:53;;;;;;;0.47;0.30;;;18.00;99.90;;;;;;5013272;28;20236;-81
2023/06/30 03:21:24;;;;;;;0.65;0.30;;;18.00;99.90;;;;;;5013194;28;20231;-82
2023/06/30 03:23:56;;;;;;;0.30;0.30;;;18.00;99.90;;;;;;5013387;28;20230;-83
2023/06/30 03:26:28;;;;;;;0.63;0.20;;;18.10;99.90;;;;;;5013190;28;20558;-83
2023/06/30 03:28:59;;;;;;;0.77;0.30;;;18.10;99.90;;;;;;5007226;28;20678;-83
2023/06/30 03:31:30;;;;;;;0.20;0.20;;;18.00;99.90;;;;;;5005269;28;20233;-80
2023/06/30 03:34:04;;;;;;;2.10;0.40;;;18.10;99.90;;;;;;5013754;28;20191;-82
2023/06/30 03:36:35;;;;;;;0.30;0.30;;;18.30;99.90;;;;;;5013311;28;20191;-83
2023/06/30 03:39:07;;;;;;;3.10;0.20;;;18.40;99.90;;;;;;5013187;28;20223;-82
2023/06/30 03:41:38;;;;;;;0.30;0.10;;;18.50;99.90;;;;;;5013141;28;20278;-82
2023/06/30 03:44:11;;;;;;;0.10;0.10;;;18.40;99.90;;;;;;5013589;28;20214;-83
2023/06/30 03:46:42;;;;;;;2.63;0.20;;;18.30;99.90;;;;;;5013206;28;20198;-83
2023/06/30 03:49:15;;;;;;;1.95;0.20;;;18.40;99.90;;;;;;5012850;28;20199;-84
2023/06/30 03:51:46;;;;;;;0.30;0.20;;;18.40;99.90;;;;;;5013493;28;20187;-83
2023/06/30 03:54:17;;;;;;;0.10;0.10;;;18.40;99.90;;;;;;5013167;28;20198;-83
2023/06/30 03:56:48;;;;;;;2.55;0.20;;;18.40;99.90;;;;;;5012994;28;20531;-84
2023/06/30 03:59:19;;;;;;;0.95;0.10;;;18.20;99.90;;;;;;5013026;28;20222;-84
2023/06/30 04:01:50;;;;;;;0.82;0.55;;;18.20;99.90;;;;;;5013334;28;20201;-76
2023/06/30 04:04:23;;;;;;;0.25;0.20;;;18.30;99.90;;;;;;5012854;28;20198;-76
2023/06/30 04:06:54;;;;;;;0.43;0.28;;;18.20;99.90;;;;;;5013064;28;20202;-77
2023/06/30 04:09:25;;;;;;;0.40;0.30;;;18.20;99.90;;;;;;5013277;28;20198;-76
2023/06/30 04:11:57;;;;;;;3.03;0.63;;;18.30;99.90;;;;;;5011597;28;20687;-75
2023/06/30 04:14:28;;;;;;;0.38;0.20;;;18.40;99.90;;;;;;5016082;28;20191;-76
2023/06/30 04:16:59;;;;;;;0.20;0.15;;;18.50;99.90;;;;;;5014607;28;20221;-74
2023/06/30 04:19:32;;;;;;;0.17;0.17;;;18.50;99.90;;;;;;5014438;28;20249;-77
2023/06/30 04:22:03;;;;;;;0.20;0.20;;;18.50;99.90;;;;;;5016524;28;20199;-75
2023/06/30 04:24:34;;;;;;;0.30;0.30;;;18.40;99.90;;;;;;5016289;28;20195;-78
2023/06/30 04:27:06;;;;;;;0.10;0.10;;;18.50;99.90;;;;;;5016282;28;20199;-77
2023/06/30 04:29:37;;;;;;;0.45;0.20;;;18.50;99.90;;;;;;5016684;28;20196;-76
2023/06/30 04:32:08;;;;;;;1.23;0.20;;;18.50;99.90;;;;;;5016332;28;20207;-74
2023/06/30 04:34:41;;;;;;;0.10;0.10;;;18.50;99.90;;;;;;5016200;28;20563;-76
2023/06/30 04:37:13;;;;;;;2.92;0.20;;;18.50;99.90;;;;;;5016856;28;20195;-75
2023/06/30 04:39:45;;;;;;;1.55;0.10;;;18.40;99.90;;;;;;5010706;28;20222;-78
2023/06/30 04:42:17;;;;;;;0.10;0.10;;;18.30;99.90;;;;;;5016255;28;20646;-77
2023/06/30 04:44:48;;;;;;;1.70;0.10;;;18.30;99.90;;;;;;5016130;28;20191;-75
2023/06/30 04:47:19;;;;;;;0.68;0.20;;;18.30;99.90;;;;;;5015984;28;20278;-76
2023/06/30 04:49:52;;;;;;;0.52;0.10;;;18.30;99.90;;;;;;5015944;28;20210;-78
2023/06/30 04:52:23;;;;;;;0.30;0.20;;;18.30;99.90;;;;;;5016234;28;20191;-76
2023/06/30 04:54:55;;;;;;;0.57;0.20;;;18.30;99.90;;;;;;5015670;28;20563;-76
2023/06/30 04:57:26;;;;;;;0.20;0.20;;;18.30;99.90;;;;;;5015660;28;20234;-76
2023/06/30 04:59:58;;;;;;;0.17;0.17;;;18.30;99.90;;;;;;5015765;28;20195;-77
2023/06/30 05:02:29;;;;;;;0.20;0.20;;;18.30;99.90;;;;;;5015714;28;20191;-77
2023/06/30 05:05:02;;;;;;;0.10;0.10;;;18.30;99.90;;;;;;5015702;28;20214;-76
2023/06/30 05:07:33;;;;;;;0.98;0.10;;;18.20;99.90;;;;;;5015621;28;20193;-77
2023/06/30 05:10:04;;;;;;;0.57;0.15;;;18.20;99.90;;;;;;5015524;28;20195;-77
2023/06/30 05:12:35;;;;;;;0.20;0.20;;;18.20;99.90;;;;;;5015333;28;20227;-75
2023/06/30 05:15:07;;;;;;;0.30;0.20;;;18.10;99.90;;;;;;5015329;28;20202;-79
2023/06/30 05:17:38;;;;;;;0.20;0.20;;;18.10;99.90;;;;;;5015589;28;20202;-76
2023/06/30 05:20:13;;;;;;;1.17;0.20;;;18.00;99.90;;;;;;5015219;28;20235;-77
2023/06/30 05:22:44;;;;;;;0.88;0.45;;;18.00;99.90;;;;;;5015043;28;20197;-77
2023/06/30 05:25:15;;;;;;;0.35;0.28;;;18.10;99.90;;;;;;5012251;28;20222;-75
2023/06/30 05:27:46;;;;;;;0.32;0.30;;;18.00;99.90;;;;;;5014422;28;20206;-76
2023/06/30 05:30:17;;;;;;;0.22;0.22;;;18.00;99.90;;;;;;5013538;28;20681;-77
2023/06/30 05:32:48;;;;;;;0.35;0.30;;;18.00;99.90;;;;;;5137074;23;20809;-71
2023/06/30 05:35:21;;;;;;;0.20;0.20;;;17.90;99.90;;;;;;4980736;28;20199;-71
2023/06/30 05:37:52;;;;;;;0.20;0.20;;;17.80;99.90;;;;;;4993631;28;20599;-71
2023/06/30 05:40:24;;;;;;;1.38;0.40;;;17.80;99.90;;;;;;4994412;28;20203;-71
2023/06/30 05:42:55;;;;;;;0.73;0.45;;;17.80;99.90;;;;;;4995382;28;20200;-71
2023/06/30 05:45:26;;;;;;;0.20;0.20;;;17.80;99.90;;;;;;4995778;28;20188;-71
2023/06/30 05:47:57;;;;;;;0.20;0.20;;;17.70;99.90;;;;;;4994739;28;20569;-71
2023/06/30 05:50:30;;;;;;;0.30;0.30;;;17.70;99.90;;;;;;4995318;28;20192;-71
2023/06/30 05:53:02;;;;;;;0.40;0.30;;;17.70;99.90;;;;;;4996007;28;20200;-71
2023/06/30 05:55:34;;;;;;;0.68;0.55;;;17.60;99.90;;;;;;4995272;28;20242;-72
2023/06/30 05:58:05;;;;;;;0.65;0.40;;;17.60;99.90;;;;;;4995108;28;20199;-71
2023/06/30 06:00:36;;;;;;;0.52;0.40;;;17.60;99.90;;;;;;4995002;28;20196;-71
2023/06/30 06:03:07;;;;;;;1.25;0.40;;;17.50;99.90;;;;;;4995120;28;20192;-72
2023/06/30 06:05:40;;;;;;;0.30;0.30;;;17.40;99.90;;;;;;4995083;28;20192;-71
2023/06/30 06:08:11;;;;;;;0.20;0.20;;;17.40;99.90;;;;;;4994947;28;20679;-71
2023/06/30 06:10:43;;;;;;;0.60;0.28;;;17.30;99.90;;;;;;4994912;28;20192;-72
2023/06/30 06:13:14;;;;;;;1.70;0.22;;;17.20;99.90;;;;;;4994820;28;20231;-71
2023/06/30 06:15:45;;;;;;;0.20;0.20;;;17.10;99.90;;;;;;4994653;28;20223;-70
2023/06/30 06:18:16;;;;;;;0.77;0.30;;;17.10;99.90;;;;;;4994798;28;20219;-71
2023/06/30 06:20:50;;;;;;;0.20;0.20;;;17.00;99.90;;;;;;4994267;28;20204;-73
2023/06/30 06:23:21;;;;;;;0.20;0.20;;;16.90;99.90;;;;;;4994696;28;20383;-71
2023/06/30 06:25:52;;;;;;;0.20;0.20;;;16.80;99.90;;;;;;4994768;28;20195;-72
2023/06/30 06:28:23;;;;;;;0.32;0.32;;;16.70;99.90;;;;;;4994595;28;20199;-72
2023/06/30 06:30:54;;;;;;;0.40;0.30;;;16.60;99.90;;;;;;4994432;28;20192;-72
2023/06/30 06:33:25;;;;;;;0.85;0.35;;;16.50;99.90;;;;;;4994216;28;20239;-72
2023/06/30 06:35:59;;;;;;;0.65;0.40;;;16.50;99.90;;;;;;4993914;28;20230;-72
2023/06/30 06:38:30;;;;;;;0.43;0.35;;;16.40;99.90;;;;;;4993731;28;20222;-72
2023/06/30 06:41:01;;;;;;;0.98;0.55;;;16.30;99.90;;;;;;5006704;28;20207;-72
2023/06/30 06:43:32;;;;;;;0.40;0.40;;;16.20;99.90;;;;;;5010096;28;20585;-72
2023/06/30 06:46:03;;;;;;;0.40;0.40;;;16.10;99.90;;;;;;4991284;28;20196;-72
2023/06/30 06:48:34;;;;;;;0.38;0.38;;;16.00;99.90;;;;;;4994449;28;20200;-71
2023/06/30 06:51:10;;;;;;;0.65;0.32;;;15.90;99.90;;;;;;5012289;28;20194;-72
2023/06/30 06:53:41;;;;;;;0.43;0.30;;;15.90;99.90;;;;;;4995922;28;20670;-71
2023/06/30 06:56:12;;;;;;;1.23;0.45;;;15.80;99.90;;;;;;5002794;28;20198;-72
2023/06/30 06:58:43;;;;;;;1.05;0.50;;;15.80;99.90;;;;;;4992127;28;20230;-72
2023/06/30 07:01:14;;;;;;;0.77;0.35;;;15.70;99.90;;;;;;5006781;28;20198;-72
2023/06/30 07:03:45;;;;;;;0.40;0.40;;;15.60;99.90;;;;;;4997945;28;20203;-72
2023/06/30 07:06:19;;;;;;;1.58;0.35;;;15.60;99.90;;;;;;4985337;28;20199;-71
2023/06/30 07:08:50;;;;;;;1.10;0.50;;;15.50;99.90;;;;;;4995058;28;20209;-72
2023/06/30 07:11:21;;;;;;;1.17;0.50;;;15.50;99.90;;;;;;4992293;28;20663;-72
2023/06/30 07:13:51;;;;;;;1.25;0.40;;;15.40;99.90;;;;;;4992280;28;20227;-71
2023/06/30 07:16:22;;;;;;;0.63;0.47;;;15.30;99.90;;;;;;4987275;28;20200;-72
2023/06/30 07:18:53;;;;;;;0.40;0.40;;;15.30;99.90;;;;;;4994123;28;20222;-72
2023/06/30 07:21:26;;;;;;;1.17;0.50;;;15.30;99.90;;;;;;4980349;28;20195;-72
2023/06/30 07:23:56;;;;;;;0.50;0.50;;;15.20;99.90;;;;;;4992368;28;20277;-72
2023/06/30 07:26:27;;;;;;;0.73;0.45;;;15.20;99.90;;;;;;4993736;28;20196;-72
2023/06/30 07:28:58;;;;;;;0.93;0.50;;;15.10;99.90;;;;;;4990376;28;20195;-71
2023/06/30 07:31:31;;;;;;;2.25;0.52;;;15.10;99.90;;;;;;4988519;28;20221;-72
2023/06/30 07:34:02;;;;;;;0.75;0.50;;;15.10;99.90;;;;;;4992586;28;20199;-71
2023/06/30 07:36:35;;;;;;;0.40;0.40;;;15.00;99.90;;;;;;4991661;28;20214;-72
2023/06/30 07:39:06;;;;;;;0.47;0.47;;;15.00;99.90;;;;;;4989222;28;20322;-72
2023/06/30 07:41:37;;;;;;;0.50;0.50;;;14.90;99.90;;;;;;4991747;28;20207;-72
2023/06/30 07:44:09;;;;;;;1.85;0.50;;;14.90;99.90;;;;;;4991438;28;20290;-72
2023/06/30 07:46:40;;;;;;;0.93;0.60;;;14.90;99.90;;;;;;4989177;28;20211;-72
2023/06/30 07:49:10;;;;;;;0.70;0.60;;;14.80;99.90;;;;;;4993065;28;20213;-71
2023/06/30 07:51:45;;;;;;;0.85;0.70;;;14.70;99.90;;;;;;4996131;28;20195;-72
2023/06/30 07:54:16;;;;;;;2.70;0.73;;;14.70;99.90;;;;;;4995838;28;20209;-72
2023/06/30 07:56:47;;;;;;;1.10;0.80;;;14.60;99.90;;;;;;4994626;28;20206;-72
2023/06/30 07:59:18;;;;;;;1.92;0.80;;;14.60;99.90;;;;;;4995921;28;20215;-72
2023/06/30 08:01:48;;;;;;;0.77;0.77;;;14.50;99.90;;;;;;4992547;28;20203;-72
2023/06/30 08:04:21;;;;;;;0.80;0.70;;;14.50;99.90;;;;;;4992803;28;20246;-72
2023/06/30 08:06:54;;;;;;;2.40;0.70;;;14.40;99.90;;;;;;4995014;28;20257;-72
2023/06/30 08:09:25;;;;;;;0.68;0.68;;;14.40;99.90;;;;;;4993136;28;20200;-72
2023/06/30 08:11:57;;;;;;;0.75;0.73;;;14.40;99.90;;;;;;4993073;28;20207;-73
2023/06/30 08:14:28;;;;;;;0.60;0.60;;;14.30;99.90;;;;;;4997975;28;20196;-72
2023/06/30 08:16:58;;;;;;;2.53;0.70;;;14.20;99.90;;;;;;4992838;28;20287;-73
2023/06/30 08:19:29;;;;;;;0.90;0.70;;;14.20;99.90;;;;;;4998176;28;20691;-73
2023/06/30 08:22:02;;;;;;;0.70;0.70;;;14.20;99.90;;;;;;4996859;28;20218;-73
2023/06/30 08:24:33;;;;;;;0.85;0.60;;;14.10;99.90;;;;;;4996641;28;20231;-73
2023/06/30 08:27:05;;;;;;;0.77;0.70;;;14.10;99.90;;;;;;4996123;28;20197;-74
2023/06/30 08:29:37;;;;;;;1.38;0.73;;;14.00;99.90;;;;;;4996534;28;20207;-73
2023/06/30 08:32:08;;;;;;;1.08;0.80;;;13.90;99.90;;;;;;4996436;28;20242;-72
2023/06/30 08:34:39;;;;;;;0.82;0.70;;;13.90;99.90;;;;;;4996825;28;20663;-73
2023/06/30 08:37:12;;;;;;;0.82;0.70;;;13.90;99.90;;;;;;4996490;28;20202;-74
2023/06/30 08:39:43;;;;;;;0.80;0.60;;;13.80;99.90;;;;;;4994476;28;20222;-73
2023/06/30 08:42:17;;;;;;;0.73;0.60;;;13.80;99.90;;;;;;4993362;28;20199;-73
2023/06/30 08:44:52;;;;;;;0.50;0.50;;;13.80;99.90;;;;;;4995632;28;20617;-72
2023/06/30 08:47:28;;;;;;;0.50;0.50;;;13.80;99.90;;;;;;4991113;28;20305;-73
2023/06/30 08:49:59;;;;;;;1.17;0.60;;;13.70;99.90;;;;;;4986892;28;20287;-73
2023/06/30 08:52:32;;;;;;;0.85;0.60;;;13.70;99.90;;;;;;4995197;28;20655;-72
2023/06/30 08:55:04;;;;;;;0.80;0.80;;;13.70;99.90;;;;;;4995440;28;20196;-73
2023/06/30 08:57:35;;;;;;;1.40;0.90;;;13.70;99.90;;;;;;4994797;28;20191;-72
2023/06/30 09:00:07;;;;;;;2.40;1.73;;;13.60;99.90;;;;;;5002549;28;20581;-73
2023/06/30 09:02:39;;;;;;;1.63;1.10;;;13.60;99.90;;;;;;4997122;28;20210;-73
2023/06/30 09:05:11;;;;;;;1.77;1.00;;;13.50;99.90;;;;;;4995081;28;20546;-73
2023/06/30 09:07:49;;;;;;;1.73;1.10;;;13.50;99.90;;;;;;4994106;28;20200;-73
2023/06/30 09:10:21;;;;;;;2.08;1.10;;;13.50;99.90;;;;;;4992699;28;20219;-73
2023/06/30 09:12:54;;;;;;;1.67;1.10;;;13.40;99.90;;;;;;4993652;28;20203;-73
2023/06/30 09:15:26;;;;;;;1.20;1.10;;;13.40;99.90;;;;;;4994396;28;20212;-73
2023/06/30 09:17:58;;;;;;;1.90;0.85;;;13.40;99.90;;;;;;4994486;28;20210;-73
2023/06/30 09:20:29;;;;;;;1.40;0.95;;;13.40;99.90;;;;;;4990692;28;20216;-73
2023/06/30 09:23:05;;;;;;;1.25;0.90;;;13.30;99.90;;;;;;4990392;28;20270;-73
2023/06/30 09:25:42;;;;;;;1.25;0.90;;;13.30;99.90;;;;;;4986406;28;20191;-73
2023/06/30 09:28:14;;;;;;;0.70;0.70;;;13.30;99.90;;;;;;4995569;28;20200;-73
2023/06/30 09:30:47;;;;;;;1.40;0.90;;;13.30;99.90;;;;;;4994260;28;20574;-73
2023/06/30 09:33:20;;;;;;;1.25;1.00;;;13.20;99.90;;;;;;4985242;28;20242;-74
2023/06/30 09:35:51;;;;;;;1.17;0.90;;;13.20;99.90;;;;;;4989793;28;20714;-73
2023/06/30 09:38:24;;;;;;;1.95;1.13;;;13.10;99.90;;;;;;5000949;28;20206;-74
2023/06/30 09:40:54;;;;;;;1.80;1.10;;;13.10;99.90;;;;;;4994105;28;20219;-74
2023/06/30 09:43:27;;;;;;;1.33;1.20;;;13.10;99.90;;;;;;4994374;28;20323;-73
2023/06/30 09:45:59;;;;;;;1.30;0.90;;;13.00;99.90;;;;;;4981584;28;20198;-74
2023/06/30 09:48:33;;;;;;;2.60;1.10;;;13.00;99.90;;;;;;4989785;28;20242;-73
2023/06/30 09:51:06;;;;;;;1.30;1.13;;;12.90;99.90;;;;;;4994365;28;20215;-74
2023/06/30 09:53:44;;;;;;;2.45;1.40;;;12.80;99.90;;;;;;4993190;28;20203;-74
2023/06/30 09:56:23;;;;;;;1.83;1.20;;;12.80;99.90;;;;;;4991656;28;20195;-73
2023/06/30 09:58:59;;;;;;;2.17;1.20;;;12.70;99.90;;;;;;4994541;28;20203;-73
2023/06/30 10:01:31;;;;;;;1.15;0.98;;;12.60;99.90;;;;;;4994382;28;20305;-73
2023/06/30 10:04:02;;;;;;;1.17;1.00;;;12.60;99.90;;;;;;4993066;28;20728;-73
2023/06/30 10:06:32;;;;;;;1.50;1.20;;;12.60;99.90;;;;;;4995649;28;20286;-74
2023/06/30 10:09:06;;;;;;;1.13;1.02;;;12.60;99.90;;;;;;4994913;28;20564;-73
2023/06/30 10:11:38;;;;;;;1.50;1.15;;;12.60;99.90;;;;;;4991478;28;20199;-72
2023/06/30 10:14:09;;;;;;;1.88;1.30;;;12.70;99.90;;;;;;4992187;28;20199;-73
2023/06/30 10:16:40;;;;;;;1.45;1.20;;;12.70;99.90;;;;;;4987939;28;20211;-73
2023/06/30 10:19:12;;;;;;;1.50;1.30;;;12.70;99.90;;;;;;4987606;28;20199;-73
2023/06/30 10:21:43;;;;;;;2.33;1.70;;;12.70;99.90;;;;;;4990990;28;20207;-73
2023/06/30 10:24:17;;;;;;;3.25;1.75;;;12.70;99.90;;;;;;4994552;28;20195;-73
2023/06/30 10:26:49;;;;;;;3.17;1.70;;;12.70;99.90;;;;;;4994597;28;20283;-73
2023/06/30 10:29:20;;;;;;;2.42;1.63;;;12.70;99.90;;;;;;4999714;28;20203;-73
2023/06/30 10:31:52;;;;;;;2.88;1.60;;;12.70;99.90;;;;;;4992719;28;20702;-73
2023/06/30 10:34:23;;;;;;;1.85;1.30;;;12.60;99.90;;;;;;4991118;28;20299;-73
2023/06/30 10:36:56;;;;;;;3.00;1.50;;;12.70;99.90;;;;;;4992570;28;20205;-72
2023/06/30 10:39:35;;;;;;;4.32;1.70;;;12.70;99.90;;;;;;4982428;28;20259;-72
2023/06/30 10:42:09;;;;;;;2.30;1.70;;;12.60;99.90;;;;;;4990778;28;20938;-73
2023/06/30 10:44:47;;;;;;;2.38;1.55;;;12.60;99.90;;;;;;4989659;28;20202;-73
2023/06/30 10:47:25;;;;;;;2.10;1.50;;;12.60;99.90;;;;;;4989288;28;20203;-73
2023/06/30 10:49:56;;;;;;;1.95;1.40;;;12.60;99.90;;;;;;4993297;28;20203;-73
2023/06/30 10:52:31;;;;;;;1.70;1.40;;;12.60;99.90;;;;;;5003445;28;20195;-73
2023/06/30 10:55:08;;;;;;;2.10;1.45;;;12.60;99.90;;;;;;5014286;28;20190;-72
2023/06/30 10:57:40;;;;;;;1.80;1.25;;;12.60;99.90;;;;;;5003489;28;20566;-73
2023/06/30 11:00:14;;;;;;;1.92;1.38;;;12.50;99.90;;;;;;4994193;28;20224;-73
2023/06/30 11:02:51;;;;;;;2.00;1.33;;;12.50;99.90;;;;;;4993268;28;20215;-73
2023/06/30 11:05:24;;;;;;;3.05;1.52;;;12.50;99.90;;;;;;4980459;28;20194;-72
2023/06/30 11:07:56;;;;;;;2.17;1.48;;;12.50;99.90;;;;;;4994222;28;20219;-72
2023/06/30 11:10:38;;;;;;;2.08;1.23;;;12.50;99.90;;;;;;4994224;28;20191;-73
2023/06/30 11:13:11;;;;;;;3.13;1.30;;;12.50;99.90;;;;;;4993040;28;20557;-73
2023/06/30 11:15:47;;;;;;;2.63;1.35;;;12.50;99.90;;;;;;4994252;28;20203;-73
2023/06/30 11:18:21;;;;;;;2.05;1.38;;;12.50;99.90;;;;;;4993494;28;20203;-73
2023/06/30 11:21:02;;;;;;;1.88;1.40;;;12.50;99.90;;;;;;4974458;28;20223;-73
2023/06/30 11:23:36;;;;;;;1.30;1.20;;;12.50;99.90;;;;;;4986952;28;20202;-73
2023/06/30 11:26:18;;;;;;;2.88;1.52;;;12.40;99.90;;;;;;4999555;28;20199;-73
2023/06/30 11:28:50;;;;;;;2.95;1.40;;;12.40;99.90;;;;;;5000513;28;20214;-73
2023/06/30 11:31:21;;;;;;;1.67;1.30;;;12.40;99.90;;;;;;5000093;28;20227;-73
2023/06/30 11:33:53;;;;;;;2.33;1.42;;;12.30;99.90;;;;;;4986210;28;20199;-72
2023/06/30 11:36:24;;;;;;;3.05;1.60;;;12.30;99.90;;;;;;4997778;28;20210;-73
2023/06/30 11:38:56;;;;;;;2.65;1.70;;;12.30;99.90;;;;;;4999537;28;20187;-72
2023/06/30 11:41:34;;;;;;;2.22;1.40;;;12.30;99.90;;;;;;5010958;28;20700;-73
2023/06/30 11:44:05;;;;;;;2.15;1.58;;;12.30;99.90;;;;;;5020246;28;20193;-73
2023/06/30 11:46:39;;;;;;;2.75;1.70;;;12.20;99.90;;;;;;5020056;28;20226;-73
2023/06/30 11:49:13;;;;;;;1.83;1.60;;;12.20;99.90;;;;;;5005565;28;20203;-72
2023/06/30 11:51:45;;;;;;;2.63;2.00;;;12.20;99.90;;;;;;5000230;28;20191;-72
2023/06/30 11:54:18;;;;;;;4.10;1.80;;;12.20;99.90;;;;;;4997985;28;20192;-72
2023/06/30 11:56:55;;;;;;;2.65;1.73;;;12.20;99.90;;;;;;5000234;28;20191;-73
2023/06/30 11:59:26;;;;;;;2.22;1.85;;;12.10;99.90;;;;;;5000492;28;20199;-72
2023/06/30 12:01:57;;;;;;;3.40;1.90;;;12.10;99.90;;;;;;5000103;28;20219;-72
2023/06/30 12:04:39;;;;;;;3.15;1.70;;;12.10;99.90;;;;;;4998860;28;20204;-73
2023/06/30 12:07:10;;;;;;;2.47;1.70;;;12.00;99.90;;;;;;4995697;28;20199;-72
2023/06/30 12:09:42;;;;;;;3.47;1.80;;;12.00;99.90;;;;;;5000073;28;20200;-72
2023/06/30 12:12:29;;;;;;;3.90;1.63;;;12.00;99.90;;;;;;5000001;28;20198;-72
2023/06/30 12:15:01;;;;;;;1.65;1.33;;;12.00;99.90;;;;;;5000091;28;20214;-72
2023/06/30 12:17:32;;;;;;;2.30;1.30;;;11.90;99.90;;;;;;4996106;28;20679;-72
2023/06/30 12:20:04;;;;;;;2.05;1.27;;;11.90;99.90;;;;;;4999051;28;20206;-72
2023/06/30 12:22:41;;;;;;;2.13;1.40;;;11.80;99.90;;;;;;4998245;28;20203;-73
2023/06/30 12:25:14;;;;;;;1.33;1.10;;;11.90;99.90;;;;;;4997140;28;20201;-72
2023/06/30 12:27:47;;;;;;;1.38;1.10;;;11.80;99.90;;;;;;5000191;28;20246;-72
2023/06/30 12:30:19;;;;;;;1.00;0.90;;;11.80;99.90;;;;;;4999920;28;20298;-72
2023/06/30 12:32:58;;;;;;;1.17;0.90;;;11.90;99.90;;;;;;4997008;28;20602;-72
2023/06/30 12:35:33;;;;;;;1.48;0.90;;;11.90;99.90;;;;;;4996987;28;20627;-72
2023/06/30 12:38:07;;;;;;;0.80;0.80;;;11.90;99.90;;;;;;4996732;28;20202;-72
2023/06/30 12:40:38;;;;;;;1.10;0.77;;;11.90;99.90;;;;;;5001726;28;20214;-73
2023/06/30 12:43:11;;;;;;;1.48;0.80;;;11.90;99.90;;;;;;5007528;28;20214;-72
2023/06/30 12:45:41;;;;;;;1.00;0.90;;;11.90;99.90;;;;;;4994670;28;20207;-72
2023/06/30 12:48:12;;;;;;;0.88;0.70;;;11.90;99.90;;;;;;4993116;28;20196;-72
2023/06/30 12:50:43;;;;;;;1.63;0.85;;;11.90;99.90;;;;;;4992932;28;20565;-72
2023/06/30 12:53:16;;;;;;;1.15;0.80;;;12.00;99.90;;;;;;4994857;28;20200;-73
2023/06/30 12:55:48;;;;;;;2.15;0.80;;;12.00;99.90;;;;;;4994826;28;20200;-73
2023/06/30 12:58:22;;;;;;;1.23;0.80;;;11.90;99.90;;;;;;4994620;28;20199;-73
2023/06/30 13:00:55;;;;;;;0.90;0.70;;;12.00;99.90;;;;;;4994481;28;20242;-73
2023/06/30 13:03:26;;;;;;;1.10;1.00;;;12.00;99.90;;;;;;4995324;28;20203;-73
2023/06/30 13:05:57;;;;;;;1.38;1.00;;;12.00;99.90;;;;;;4994741;28;20200;-73
2023/06/30 13:08:27;;;;;;;0.70;0.70;;;12.00;99.90;;;;;;4995346;28;20278;-73
2023/06/30 13:11:00;;;;;;;0.50;0.50;;;11.90;99.90;;;;;;4993418;28;20206;-73
2023/06/30 13:13:34;;;;;;;2.90;0.68;;;12.00;99.90;;;;;;4992983;28;20208;-73